createdAt,value
2018-07-16T00:01:32.363Z,100279.50
2018-07-16T00:04:03.062Z,100283.27
2018-07-16T00:06:33.849Z,100279.42
2018-07-16T00:09:04.742Z,100277.37
2018-07-16T00:11:36.346Z,100274.50
2018-07-16T00:14:07.312Z,100275.51
2018-07-16T00:16:38.229Z,100279.08
2018-07-16T00:19:08.975Z,100274.48
2018-07-16T00:21:39.909Z,100269.75
2018-07-16T00:24:10.842Z,100263.31
2018-07-16T00:26:41.535Z,100265.50
2018-07-16T00:29:12.447Z,100267.11
2018-07-16T00:31:43.191Z,100259.09
2018-07-16T00:34:13.816Z,100263.00
2018-07-16T00:36:44.447Z,100255.46
2018-07-16T00:39:15.535Z,100253.62
2018-07-16T00:41:46.564Z,100248.75
2018-07-16T00:44:17.332Z,100245.84
2018-07-16T00:46:48.128Z,100241.25
2018-07-16T00:49:18.856Z,100243.68
2018-07-16T00:51:49.565Z,100235.91
2018-07-16T00:54:20.378Z,100238.20
2018-07-16T00:56:51.106Z,100236.14
2018-07-16T00:59:21.739Z,100229.70
2018-07-16T01:01:52.456Z,100231.92
2018-07-16T01:04:23.119Z,100231.95
2018-07-16T01:06:53.783Z,100231.70
2018-07-16T01:09:24.449Z,100225.03
2018-07-16T01:11:55.114Z,100238.25
2018-07-16T01:14:25.826Z,100230.00
2018-07-16T01:16:56.513Z,100223.91
2018-07-16T01:19:27.179Z,100223.77
2018-07-16T01:21:57.872Z,100219.66
2018-07-16T01:24:28.564Z,100214.91
2018-07-16T01:26:59.410Z,100214.77
2018-07-16T01:29:30.378Z,100218.19
2018-07-16T01:32:01.126Z,100210.04
2018-07-16T01:34:32.057Z,100212.47
2018-07-16T01:37:02.848Z,100211.03
2018-07-16T01:39:33.598Z,100208.84
2018-07-16T01:42:04.478Z,100202.67
2018-07-16T01:44:35.473Z,100205.34
2018-07-16T01:47:06.470Z,100199.52
2018-07-16T01:49:37.486Z,100204.28
2018-07-16T01:52:08.220Z,100204.27
2018-07-16T01:54:39.409Z,100196.77
2018-07-16T01:57:10.400Z,100200.67
2018-07-16T01:59:41.364Z,100194.62
2018-07-16T02:02:12.736Z,100199.59
2018-07-16T02:04:43.458Z,100198.27
2018-07-16T02:07:14.978Z,100193.52
2018-07-16T02:09:46.009Z,100193.13
2018-07-16T02:12:17.121Z,100189.73
2018-07-16T02:14:48.020Z,100193.94
2018-07-16T02:17:18.900Z,100187.99
2018-07-16T02:19:49.888Z,100187.11
2018-07-16T02:22:20.829Z,100188.05
2018-07-16T02:24:51.898Z,100191.11
2018-07-16T02:27:22.801Z,100199.03
2018-07-16T02:29:53.840Z,100195.98
2018-07-16T02:32:24.501Z,100195.42
2018-07-16T02:34:55.493Z,100196.67
2018-07-16T02:37:26.234Z,100193.53
2018-07-16T02:39:56.954Z,100195.50
2018-07-16T02:42:27.631Z,100192.36
2018-07-16T02:44:58.352Z,100194.48
2018-07-16T02:47:29.037Z,100198.22
2018-07-16T02:49:59.768Z,100192.85
2018-07-16T02:52:30.511Z,100201.31
2018-07-16T02:55:01.209Z,100201.77
2018-07-16T02:57:32.015Z,100203.66
2018-07-16T03:00:02.732Z,100201.33
2018-07-16T03:02:36.567Z,100195.98
2018-07-16T03:05:07.831Z,100195.85
2018-07-16T03:07:38.585Z,100196.66
2018-07-16T03:10:09.240Z,100191.08
2018-07-16T03:12:39.938Z,100189.34
2018-07-16T03:15:11.664Z,100197.66
2018-07-16T03:17:42.400Z,100194.57
2018-07-16T03:20:13.686Z,100198.23
2018-07-16T03:22:44.375Z,100196.15
2018-07-16T03:25:15.041Z,100193.57
2018-07-16T03:27:45.739Z,100193.95
2018-07-16T03:30:17.012Z,100198.07
2018-07-16T03:32:47.716Z,100199.95
2018-07-16T03:35:18.414Z,100195.34
2018-07-16T03:37:49.110Z,100198.12
2018-07-16T03:40:19.818Z,100189.97
2018-07-16T03:42:50.591Z,100189.41
2018-07-16T03:45:21.256Z,100199.45
2018-07-16T03:47:52.049Z,100192.13
2018-07-16T03:50:22.756Z,100193.69
2018-07-16T03:52:53.453Z,100192.15
2018-07-16T03:55:24.223Z,100192.67
2018-07-16T03:57:55.167Z,100191.11
2018-07-16T04:00:26.361Z,100194.51
2018-07-16T04:02:57.106Z,100190.56
2018-07-16T04:05:27.821Z,100194.48
2018-07-16T04:07:58.502Z,100196.84
2018-07-16T04:10:29.150Z,100193.59
2018-07-16T04:12:59.886Z,100192.35
2018-07-16T04:15:30.672Z,100194.97
2018-07-16T04:18:01.360Z,100196.72
2018-07-16T04:20:32.079Z,100191.48
2018-07-16T04:23:02.765Z,100201.20
2018-07-16T04:25:33.443Z,100203.32
2018-07-16T04:28:04.190Z,100198.39
2018-07-16T04:30:34.872Z,100202.53
2018-07-16T04:33:05.635Z,100200.61
2018-07-16T04:35:36.331Z,100201.34
2018-07-16T04:38:07.076Z,100198.95
2018-07-16T04:40:37.681Z,100195.05
2018-07-16T04:43:08.375Z,100193.66
2018-07-16T04:45:39.053Z,100191.05
2018-07-16T04:48:09.808Z,100189.72
2018-07-16T04:50:40.557Z,100193.80
2018-07-16T04:53:11.353Z,100192.86
2018-07-16T04:55:42.033Z,100198.16
2018-07-16T04:58:12.748Z,100199.30
2018-07-16T05:00:43.464Z,100198.36
2018-07-16T05:03:14.188Z,100201.02
2018-07-16T05:05:44.892Z,100194.25
2018-07-16T05:08:15.575Z,100198.30
2018-07-16T05:10:46.345Z,100198.25
2018-07-16T05:13:16.963Z,100195.19
2018-07-16T05:15:47.714Z,100188.80
2018-07-16T05:18:21.311Z,100195.06
2018-07-16T05:20:52.009Z,100195.12
2018-07-16T05:23:22.695Z,100194.66
2018-07-16T05:25:53.072Z,100194.95
2018-07-16T05:28:23.634Z,100191.27
2018-07-16T05:30:54.319Z,100189.61
2018-07-16T05:33:24.980Z,100191.59
2018-07-16T05:35:55.685Z,100187.30
2018-07-16T05:38:26.415Z,100181.86
2018-07-16T05:40:57.096Z,100183.04
2018-07-16T05:43:27.816Z,100185.48
2018-07-16T05:45:58.490Z,100178.57
2018-07-16T05:48:29.222Z,100180.41
2018-07-16T05:50:59.855Z,100173.66
2018-07-16T05:53:30.672Z,100168.09
2018-07-16T05:56:01.358Z,100165.44
2018-07-16T05:58:32.063Z,100166.91
2018-07-16T06:01:02.759Z,100164.86
2018-07-16T06:03:33.471Z,100168.13
2018-07-16T06:06:04.245Z,100163.18
2018-07-16T06:08:34.963Z,100164.18
2018-07-16T06:11:05.764Z,100167.94
2018-07-16T06:13:36.480Z,100166.70
2018-07-16T06:16:38.215Z,100169.80
2018-07-16T06:19:39.747Z,100170.00
2018-07-16T06:22:10.479Z,100165.48
2018-07-16T06:24:41.151Z,100162.80
2018-07-16T06:27:11.840Z,100165.56
2018-07-16T06:29:42.579Z,100162.75
2018-07-16T06:32:13.272Z,100165.95
2018-07-16T06:38:17.407Z,100165.83
2018-07-16T06:40:48.302Z,100166.90
2018-07-16T06:43:18.834Z,100164.58
2018-07-16T06:45:49.747Z,100171.88
2018-07-16T06:48:20.499Z,100172.48
2018-07-16T06:50:51.792Z,100167.58
2018-07-16T06:53:22.678Z,100166.09
2018-07-16T06:55:53.498Z,100166.23
2018-07-16T06:58:24.197Z,100166.53
2018-07-16T07:00:55.255Z,100165.69
2018-07-16T07:03:26.007Z,100160.89
2018-07-16T07:05:56.696Z,100161.45
2018-07-16T07:08:27.422Z,100165.98
2018-07-16T07:10:58.127Z,100172.66
2018-07-16T07:13:28.857Z,100165.47
2018-07-16T07:15:59.598Z,100164.69
2018-07-16T07:18:30.294Z,100164.49
2018-07-16T07:21:00.983Z,100165.38
2018-07-16T07:23:31.679Z,100160.53
2018-07-16T07:26:02.403Z,100161.54
2018-07-16T07:28:33.073Z,100149.44
2018-07-16T07:31:03.799Z,100156.42
2018-07-16T07:33:34.513Z,100158.70
2018-07-16T07:36:05.319Z,100152.47
2018-07-16T07:38:35.981Z,100152.01
2018-07-16T07:41:07.166Z,100157.80
2018-07-16T07:43:37.824Z,100151.50
2018-07-16T07:46:08.526Z,100157.84
2018-07-16T07:48:39.182Z,100157.18
2018-07-16T07:51:09.829Z,100154.07
2018-07-16T07:53:40.509Z,100153.66
2018-07-16T07:56:11.268Z,100148.73
2018-07-16T07:58:41.917Z,100147.98
2018-07-16T08:01:12.608Z,100149.58
2018-07-16T08:03:43.260Z,100148.77
2018-07-16T08:06:14.013Z,100145.96
2018-07-16T08:08:44.722Z,100144.95
2018-07-16T08:11:15.427Z,100136.16
2018-07-16T08:13:46.164Z,100142.08
2018-07-16T08:16:16.895Z,100139.17
2018-07-16T08:18:47.702Z,100132.88
2018-07-16T08:21:18.458Z,100135.30
2018-07-16T08:23:49.112Z,100128.98
2018-07-16T08:26:19.815Z,100128.33
2018-07-16T08:28:50.557Z,100128.66
2018-07-16T08:31:21.300Z,100125.33
2018-07-16T08:33:52.052Z,100124.28
2018-07-16T08:36:22.739Z,100126.27
2018-07-16T08:38:53.534Z,100126.77
2018-07-16T08:41:24.346Z,100125.69
2018-07-16T08:43:54.733Z,100122.91
2018-07-16T08:46:25.397Z,100119.78
2018-07-16T08:48:56.136Z,100125.78
2018-07-16T08:51:26.841Z,100125.80
2018-07-16T08:53:57.622Z,100129.49
2018-07-16T08:56:28.331Z,100136.93
2018-07-16T08:58:59.043Z,100133.95
2018-07-16T09:01:29.827Z,100130.00
2018-07-16T09:04:00.512Z,100129.68
2018-07-16T09:06:31.264Z,100130.25
2018-07-16T09:09:01.977Z,100130.31
2018-07-16T09:11:32.702Z,100136.70
2018-07-16T09:14:03.685Z,100124.01
2018-07-16T09:16:34.336Z,100131.95
2018-07-16T09:19:05.092Z,100132.13
2018-07-16T09:21:35.766Z,100127.98
2018-07-16T09:24:06.521Z,100123.48
2018-07-16T09:26:37.291Z,100122.15
2018-07-16T09:29:08.161Z,100127.09
2018-07-16T09:31:38.892Z,100122.02
2018-07-16T09:34:09.904Z,100121.92
2018-07-16T09:36:40.588Z,100123.19
2018-07-16T09:39:11.400Z,100119.56
2018-07-16T09:41:42.111Z,100125.59
2018-07-16T09:44:12.881Z,100117.63
2018-07-16T09:46:43.588Z,100124.44
2018-07-16T09:49:14.011Z,100118.45
2018-07-16T09:51:44.575Z,100119.84
2018-07-16T09:54:15.286Z,100118.36
2018-07-16T09:56:46.036Z,100112.42
2018-07-16T09:59:16.769Z,100111.06
2018-07-16T10:01:51.554Z,100112.88
2018-07-16T10:04:22.288Z,100107.67
2018-07-16T10:06:53.043Z,100113.36
2018-07-16T10:09:23.726Z,100119.15
2018-07-16T10:11:54.410Z,100117.14
2018-07-16T10:14:25.152Z,100122.86
2018-07-16T10:16:55.878Z,100109.69
2018-07-16T10:19:26.535Z,100109.64
2018-07-16T10:21:57.269Z,100117.01
2018-07-16T10:24:28.093Z,100113.66
2018-07-16T10:26:58.952Z,100102.94
2018-07-16T10:29:29.628Z,100108.59
2018-07-16T10:32:00.340Z,100106.84
2018-07-16T10:34:30.709Z,100105.27
2018-07-16T10:37:01.346Z,100100.44
2018-07-16T10:39:32.046Z,100099.47
2018-07-16T10:42:02.766Z,100104.39
2018-07-16T10:44:33.450Z,100096.07
2018-07-16T10:47:04.209Z,100089.71
2018-07-16T10:49:34.931Z,100085.77
2018-07-16T10:52:05.630Z,100082.89
2018-07-16T10:54:36.401Z,100082.11
2018-07-16T10:57:07.222Z,100082.11
2018-07-16T10:59:38.741Z,100083.05
2018-07-16T11:02:09.464Z,100079.69
2018-07-16T11:04:40.281Z,100073.98
2018-07-16T11:07:11.020Z,100073.42
2018-07-16T11:09:41.716Z,100072.06
2018-07-16T11:12:12.402Z,100068.33
2018-07-16T11:14:42.733Z,100065.17
2018-07-16T11:17:13.402Z,100066.00
2018-07-16T11:19:43.696Z,100063.69
2018-07-16T11:22:14.412Z,100064.95
2018-07-16T11:24:45.131Z,100058.29
2018-07-16T11:27:15.846Z,100056.91
2018-07-16T11:29:46.556Z,100057.20
2018-07-16T11:32:17.277Z,100055.19
2018-07-16T11:34:48.012Z,100056.63
2018-07-16T11:37:18.728Z,100054.52
2018-07-16T11:39:49.457Z,100059.82
2018-07-16T11:42:20.105Z,100052.01
2018-07-16T11:44:50.838Z,100047.59
2018-07-16T11:47:21.525Z,100038.90
2018-07-16T11:49:52.251Z,100043.24
2018-07-16T11:52:29.601Z,100036.80
2018-07-16T11:55:00.329Z,100041.99
2018-07-16T11:57:31.109Z,100036.59
2018-07-16T12:00:02.628Z,100044.09
2018-07-16T12:02:33.371Z,100042.92
2018-07-16T12:05:04.127Z,100029.16
2018-07-16T12:07:34.838Z,100034.23
2018-07-16T12:10:05.607Z,100030.62
2018-07-16T12:12:36.367Z,100029.05
2018-07-16T12:15:07.052Z,100019.64
2018-07-16T12:17:37.740Z,100018.55
2018-07-16T12:20:08.514Z,100018.77
2018-07-16T12:22:39.246Z,100012.64
2018-07-16T12:25:09.864Z,100013.69
2018-07-16T12:27:43.462Z,100006.91
2018-07-16T12:30:14.407Z,100007.05
2018-07-16T12:32:45.206Z,100008.13
2018-07-16T12:35:15.848Z,100005.95
2018-07-16T12:37:46.541Z,100009.25
2018-07-16T12:40:17.242Z,100004.36
2018-07-16T12:42:48.037Z,99998.63
2018-07-16T12:45:18.682Z,99991.52
2018-07-16T12:47:49.450Z,99993.58
2018-07-16T12:50:20.070Z,99987.23
2018-07-16T12:52:50.771Z,99993.08
2018-07-16T12:55:21.491Z,99993.33
2018-07-16T12:57:52.155Z,99988.68
2018-07-16T13:00:22.843Z,99983.20
2018-07-16T13:02:53.521Z,99973.09
2018-07-16T13:05:24.215Z,99971.06
2018-07-16T13:07:54.943Z,99969.59
2018-07-16T13:10:25.597Z,99963.73
2018-07-16T13:12:56.428Z,99960.64
2018-07-16T13:15:27.062Z,99958.51
2018-07-16T13:17:57.733Z,99959.34
2018-07-16T13:20:28.479Z,99951.19
2018-07-16T13:22:59.140Z,99951.01
2018-07-16T13:25:29.932Z,99946.62
2018-07-16T13:28:00.635Z,99947.68
2018-07-16T13:30:31.281Z,99941.02
2018-07-16T13:33:01.981Z,99935.09
2018-07-16T13:35:32.795Z,99929.39
2018-07-16T13:38:03.487Z,99929.06
2018-07-16T13:40:34.180Z,99930.02
2018-07-16T13:43:05.015Z,99929.11
2018-07-16T13:45:35.685Z,99920.72
2018-07-16T13:48:06.093Z,99914.01
2018-07-16T13:50:36.658Z,99916.70
2018-07-16T13:53:07.934Z,99917.19
2018-07-16T13:55:38.604Z,99919.41
2018-07-16T13:58:09.299Z,99918.19
2018-07-16T14:00:39.980Z,99918.27
2018-07-16T14:03:10.348Z,99914.94
2018-07-16T14:05:40.934Z,99910.02
2018-07-16T14:08:11.618Z,99908.16
2018-07-16T14:10:42.323Z,99903.14
2018-07-16T14:13:13.024Z,99906.01
2018-07-16T14:18:44.779Z,99897.28
2018-07-16T14:21:15.508Z,99905.72
2018-07-16T14:23:46.341Z,99900.87
2018-07-16T14:26:17.108Z,99899.67
2018-07-16T14:28:47.769Z,99896.91
2018-07-16T14:31:18.488Z,99897.32
2018-07-16T14:33:49.136Z,99890.39
2018-07-16T14:36:20.060Z,99884.16
2018-07-16T14:38:50.806Z,99887.40
2018-07-16T14:41:21.539Z,99887.64
2018-07-16T14:43:52.271Z,99886.80
2018-07-16T14:46:23.042Z,99887.71
2018-07-16T14:48:53.712Z,99885.36
2018-07-16T14:51:24.412Z,99895.13
2018-07-16T14:53:55.117Z,99882.49
2018-07-16T14:56:25.839Z,99883.16
2018-07-16T14:58:56.554Z,99877.50
2018-07-16T15:01:27.331Z,99876.09
2018-07-16T15:03:57.977Z,99881.55
2018-07-16T15:06:28.776Z,99874.95
2018-07-16T15:08:59.502Z,99877.69
2018-07-16T15:11:30.201Z,99878.34
2018-07-16T15:14:01.165Z,99873.81
2018-07-16T15:16:31.947Z,99873.42
2018-07-16T15:19:03.487Z,99870.72
2018-07-16T15:21:34.235Z,99872.04
2018-07-16T15:24:04.946Z,99869.59
2018-07-16T15:26:36.226Z,99872.33
2018-07-16T15:29:07.118Z,99866.81
2018-07-16T15:31:37.799Z,99866.73
2018-07-16T15:34:08.715Z,99863.66
2018-07-16T15:36:39.413Z,99864.89
2018-07-16T15:39:10.365Z,99863.48
2018-07-16T15:41:41.120Z,99865.77
2018-07-16T15:44:11.990Z,99864.12
2018-07-16T15:46:42.664Z,99860.30
2018-07-16T15:49:13.342Z,99861.45
2018-07-16T15:51:44.069Z,99858.79
2018-07-16T15:54:14.842Z,99851.44
2018-07-16T15:56:45.502Z,99853.31
2018-07-16T15:59:16.145Z,99860.75
2018-07-16T16:01:46.937Z,99854.17
2018-07-16T16:04:17.646Z,99847.34
2018-07-16T16:06:48.415Z,99850.84
2018-07-16T16:09:19.135Z,99854.17
2018-07-16T16:11:49.866Z,99849.77
2018-07-16T16:14:20.523Z,99851.20
2018-07-16T16:16:51.190Z,99851.67
2018-07-16T16:19:21.835Z,99851.81
2018-07-16T16:21:52.587Z,99854.59
2018-07-16T16:24:23.265Z,99850.17
2018-07-16T16:26:54.043Z,99846.14
2018-07-16T16:29:24.841Z,99851.61
2018-07-16T16:31:55.653Z,99849.95
2018-07-16T16:34:26.352Z,99847.31
2018-07-16T16:36:57.070Z,99851.44
2018-07-16T16:39:27.751Z,99850.53
2018-07-16T16:41:58.498Z,99852.19
2018-07-16T16:44:29.191Z,99855.91
2018-07-16T16:46:59.977Z,99847.14
2018-07-16T16:49:30.647Z,99848.28
2018-07-16T16:52:01.384Z,99852.39
2018-07-16T16:54:32.143Z,99851.23
2018-07-16T16:57:03.041Z,99840.97
2018-07-16T16:59:33.691Z,99843.88
2018-07-16T17:02:04.370Z,99845.01
2018-07-16T17:04:35.053Z,99846.91
2018-07-16T17:07:05.757Z,99841.37
2018-07-16T17:09:36.447Z,99837.66
2018-07-16T17:12:07.178Z,99838.39
2018-07-16T17:14:37.913Z,99835.91
2018-07-16T17:17:08.688Z,99842.70
2018-07-16T17:19:39.387Z,99839.13
2018-07-16T17:22:10.071Z,99836.30
2018-07-16T17:24:40.808Z,99842.87
2018-07-16T17:27:11.499Z,99842.64
2018-07-16T17:29:42.191Z,99846.91
2018-07-16T17:32:15.852Z,99843.89
2018-07-16T17:34:47.222Z,99853.48
2018-07-16T17:37:17.883Z,99846.43
2018-07-16T17:39:48.223Z,99845.45
2018-07-16T17:42:18.780Z,99849.38
2018-07-16T17:44:49.509Z,99855.58
2018-07-16T17:47:20.214Z,99853.38
2018-07-16T17:49:50.856Z,99856.48
2018-07-16T17:52:21.592Z,99859.47
2018-07-16T17:54:52.251Z,99856.72
2018-07-16T17:57:22.917Z,99862.16
2018-07-16T17:59:53.559Z,99857.38
2018-07-16T18:02:24.268Z,99863.78
2018-07-16T18:04:54.996Z,99862.26
2018-07-16T18:07:25.694Z,99863.44
2018-07-16T18:09:56.420Z,99862.37
2018-07-16T18:12:27.104Z,99852.16
2018-07-16T18:14:57.776Z,99857.86
2018-07-16T18:17:28.447Z,99862.08
2018-07-16T18:19:59.156Z,99865.03
2018-07-16T18:22:29.889Z,99863.04
2018-07-16T18:25:00.582Z,99864.51
2018-07-16T18:27:31.371Z,99868.95
2018-07-16T18:30:02.350Z,99866.75
2018-07-16T18:32:33.401Z,99873.94
2018-07-16T18:35:04.519Z,99884.10
2018-07-16T18:37:35.519Z,99882.10
2018-07-16T18:40:06.691Z,99880.75
2018-07-16T18:42:37.468Z,99880.38
2018-07-16T18:45:08.138Z,99887.08
2018-07-16T18:47:38.833Z,99883.02
2018-07-16T18:50:10.114Z,99882.73
2018-07-16T18:52:42.664Z,99892.34
2018-07-16T18:55:13.640Z,99889.81
2018-07-16T18:57:44.407Z,99889.90
2018-07-16T19:00:15.300Z,99896.58
2018-07-16T19:02:46.120Z,99896.98
2018-07-16T19:05:16.904Z,99896.61
2018-07-16T19:07:48.620Z,99897.58
2018-07-16T19:10:19.604Z,99898.66
2018-07-16T19:12:51.155Z,99901.47
2018-07-16T19:15:28.456Z,99903.92
2018-07-16T19:17:59.525Z,99902.13
2018-07-16T19:20:30.767Z,99903.26
2018-07-16T19:23:01.607Z,99911.77
2018-07-16T19:25:32.784Z,99913.83
2018-07-16T19:28:03.854Z,99921.71
2018-07-16T19:30:34.620Z,99925.47
2018-07-16T19:33:05.507Z,99925.00
2018-07-16T19:35:36.250Z,99928.28
2018-07-16T19:38:07.008Z,99929.36
2018-07-16T19:40:37.741Z,99932.13
2018-07-16T19:43:08.580Z,99933.00
2018-07-16T19:45:39.393Z,99938.46
2018-07-16T19:48:10.341Z,99931.42
2018-07-16T19:50:41.411Z,99941.55
2018-07-16T19:53:12.695Z,99939.37
2018-07-16T19:55:43.596Z,99938.09
2018-07-16T19:58:15.136Z,99937.63
2018-07-16T20:00:45.998Z,99942.90
2018-07-16T20:03:16.731Z,99946.82
2018-07-16T20:05:47.468Z,99951.90
2018-07-16T20:08:18.296Z,99947.00
2018-07-16T20:10:49.165Z,99951.70
2018-07-16T20:13:20.505Z,99951.38
2018-07-16T20:15:52.000Z,99953.77
2018-07-16T20:18:22.686Z,99959.67
2018-07-16T20:20:55.830Z,99957.48
2018-07-16T20:23:26.490Z,99962.86
2018-07-16T20:25:58.289Z,99960.67
2018-07-16T20:28:28.952Z,99966.74
2018-07-16T20:30:59.639Z,99968.38
2018-07-16T20:33:30.300Z,99975.80
2018-07-16T20:36:00.992Z,99973.92
2018-07-16T20:38:31.756Z,99973.56
2018-07-16T20:41:02.492Z,99981.32
2018-07-16T20:43:33.227Z,99977.91
2018-07-16T20:46:03.873Z,99978.58
2018-07-16T20:48:34.550Z,99978.58
2018-07-16T20:51:05.245Z,99979.91
2018-07-16T20:53:35.909Z,99979.88
2018-07-16T20:56:07.042Z,99985.44
2018-07-16T20:58:37.835Z,99982.23
2018-07-16T21:01:08.527Z,99987.94
2018-07-16T21:03:39.864Z,99993.63
2018-07-16T21:06:10.532Z,99989.59
2018-07-16T21:08:41.154Z,99987.69
2018-07-16T21:11:11.785Z,99997.05
2018-07-16T21:14:45.120Z,99997.04
2018-07-16T21:17:15.769Z,99993.95
2018-07-16T21:19:46.482Z,99996.31
2018-07-16T21:22:17.184Z,99994.42
2018-07-16T21:24:47.892Z,100001.30
2018-07-16T21:27:18.859Z,100002.77
2018-07-16T21:29:49.652Z,100005.63
2018-07-16T21:32:20.118Z,100008.12
2018-07-16T21:34:50.608Z,100007.27
2018-07-16T21:37:21.349Z,100008.78
2018-07-16T21:39:52.012Z,100015.51
2018-07-16T21:42:22.766Z,100016.47
2018-07-16T21:44:53.438Z,100020.13
2018-07-16T21:47:24.261Z,100016.56
2018-07-16T21:49:54.896Z,100015.88
2018-07-16T21:52:25.664Z,100018.51
2018-07-16T21:54:56.379Z,100016.65
2018-07-16T21:57:27.111Z,100013.27
2018-07-16T21:59:57.790Z,100017.28
2018-07-16T22:02:28.719Z,100015.60
2018-07-16T22:04:59.370Z,100016.78
2018-07-16T22:07:30.049Z,100017.91
2018-07-16T22:10:00.694Z,100016.67
2018-07-16T22:12:31.401Z,100019.66
2018-07-16T22:15:02.164Z,100021.95
2018-07-16T22:17:32.836Z,100024.61
2018-07-16T22:20:03.604Z,100027.11
2018-07-16T22:22:34.301Z,100026.87
2018-07-16T22:25:05.083Z,100025.70
2018-07-16T22:27:35.794Z,100033.04
2018-07-16T22:30:06.495Z,100026.09
2018-07-16T22:32:37.129Z,100029.89
2018-07-16T22:35:07.806Z,100034.86
2018-07-16T22:37:38.519Z,100032.39
2018-07-16T22:40:09.838Z,100034.03
2018-07-16T22:42:40.540Z,100032.41
2018-07-16T22:45:11.258Z,100034.07
2018-07-16T22:47:42.003Z,100045.34
2018-07-16T22:50:12.711Z,100037.15
2018-07-16T22:52:43.381Z,100043.19
2018-07-16T22:55:14.088Z,100040.41
2018-07-16T22:57:44.741Z,100039.91
2018-07-16T23:00:15.518Z,100041.80
2018-07-16T23:02:46.185Z,100044.59
2018-07-16T23:05:16.875Z,100045.51
2018-07-16T23:07:47.587Z,100046.09
2018-07-16T23:10:18.275Z,100046.31
2018-07-16T23:12:48.991Z,100045.20
2018-07-16T23:15:19.654Z,100043.58
2018-07-16T23:17:50.296Z,100048.34
2018-07-16T23:20:20.989Z,100046.84
2018-07-16T23:22:56.334Z,100051.58
2018-07-16T23:25:27.866Z,100044.14
2018-07-16T23:27:58.539Z,100043.49
2018-07-16T23:30:29.244Z,100045.62
2018-07-16T23:32:59.887Z,100044.41
2018-07-16T23:35:30.598Z,100047.99
2018-07-16T23:38:01.254Z,100045.54
2018-07-16T23:40:32.058Z,100045.44
2018-07-16T23:43:02.703Z,100042.35
2018-07-16T23:45:33.380Z,100046.85
2018-07-16T23:48:04.092Z,100046.63
2018-07-16T23:50:34.809Z,100049.57
2018-07-16T23:53:05.504Z,100047.83
2018-07-16T23:55:36.308Z,100049.61
2018-07-16T23:58:06.916Z,100048.91
